sensor_id;sensor_type;location;lat;lon;timestamp;P1;durP1;ratioP1;P2;durP2;ratioP2
9852;SDS011;4965;43.238;27.864;2022-09-16T00:01:59;10.07;;;4.32;;
9852;SDS011;4965;43.238;27.864;2022-09-16T00:04:26;12.18;;;4.80;;
9852;SDS011;4965;43.238;27.864;2022-09-16T00:06:55;7.68;;;4.45;;
9852;SDS011;4965;43.238;27.864;2022-09-16T00:09:21;11.00;;;4.72;;
9852;SDS011;4965;43.238;27.864;2022-09-16T00:11:48;9.90;;;4.10;;
9852;SDS011;4965;43.238;27.864;2022-09-16T00:14:15;8.60;;;4.22;;
9852;SDS011;4965;43.238;27.864;2022-09-16T00:16:42;11.35;;;4.40;;
9852;SDS011;4965;43.238;27.864;2022-09-16T00:19:09;10.38;;;4.30;;
9852;SDS011;4965;43.238;27.864;2022-09-16T00:21:37;14.88;;;4.32;;
9852;SDS011;4965;43.238;27.864;2022-09-16T00:24:05;14.75;;;4.63;;
9852;SDS011;4965;43.238;27.864;2022-09-16T00:29:50;12.88;;;4.10;;
9852;SDS011;4965;43.238;27.864;2022-09-16T00:32:17;5.68;;;3.58;;
9852;SDS011;4965;43.238;27.864;2022-09-16T00:34:44;16.92;;;3.70;;
9852;SDS011;4965;43.238;27.864;2022-09-16T00:37:12;13.70;;;4.22;;
9852;SDS011;4965;43.238;27.864;2022-09-16T00:39:40;8.95;;;3.90;;
9852;SDS011;4965;43.238;27.864;2022-09-16T00:42:08;9.38;;;4.47;;
9852;SDS011;4965;43.238;27.864;2022-09-16T00:44:53;7.90;;;4.00;;
9852;SDS011;4965;43.238;27.864;2022-09-16T00:47:23;7.78;;;3.58;;
9852;SDS011;4965;43.238;27.864;2022-09-16T00:49:54;10.80;;;3.97;;
9852;SDS011;4965;43.238;27.864;2022-09-16T00:52:26;13.73;;;3.85;;
9852;SDS011;4965;43.238;27.864;2022-09-16T00:54:55;7.80;;;4.15;;
9852;SDS011;4965;43.238;27.864;2022-09-16T00:57:24;9.68;;;4.78;;
9852;SDS011;4965;43.238;27.864;2022-09-16T00:59:51;12.25;;;3.80;;
9852;SDS011;4965;43.238;27.864;2022-09-16T01:02:21;9.13;;;4.80;;
9852;SDS011;4965;43.238;27.864;2022-09-16T01:04:50;8.93;;;3.90;;
9852;SDS011;4965;43.238;27.864;2022-09-16T01:07:25;10.45;;;4.10;;
9852;SDS011;4965;43.238;27.864;2022-09-16T01:10:07;7.78;;;4.53;;
9852;SDS011;4965;43.238;27.864;2022-09-16T01:12:34;14.32;;;4.03;;
9852;SDS011;4965;43.238;27.864;2022-09-16T01:15:02;14.30;;;5.18;;
9852;SDS011;4965;43.238;27.864;2022-09-16T01:20:27;10.88;;;4.65;;
9852;SDS011;4965;43.238;27.864;2022-09-16T01:29:20;9.93;;;4.13;;
9852;SDS011;4965;43.238;27.864;2022-09-16T01:32:02;8.68;;;4.43;;
9852;SDS011;4965;43.238;27.864;2022-09-16T01:34:34;6.72;;;4.65;;
9852;SDS011;4965;43.238;27.864;2022-09-16T01:37:11;10.60;;;4.32;;
9852;SDS011;4965;43.238;27.864;2022-09-16T01:39:47;6.05;;;4.05;;
9852;SDS011;4965;43.238;27.864;2022-09-16T01:42:19;8.27;;;3.75;;
9852;SDS011;4965;43.238;27.864;2022-09-16T01:44:53;6.00;;;3.22;;
9852;SDS011;4965;43.238;27.864;2022-09-16T01:47:29;5.80;;;3.92;;
9852;SDS011;4965;43.238;27.864;2022-09-16T01:50:02;9.23;;;4.45;;
9852;SDS011;4965;43.238;27.864;2022-09-16T01:52:40;7.30;;;4.07;;
9852;SDS011;4965;43.238;27.864;2022-09-16T01:55:13;13.23;;;3.50;;
9852;SDS011;4965;43.238;27.864;2022-09-16T01:57:47;8.73;;;4.22;;
9852;SDS011;4965;43.238;27.864;2022-09-16T02:00:19;9.50;;;3.92;;
9852;SDS011;4965;43.238;27.864;2022-09-16T02:02:49;7.22;;;4.07;;
9852;SDS011;4965;43.238;27.864;2022-09-16T02:05:23;9.65;;;4.05;;
9852;SDS011;4965;43.238;27.864;2022-09-16T02:07:56;14.80;;;4.32;;
9852;SDS011;4965;43.238;27.864;2022-09-16T02:10:32;8.18;;;4.25;;
9852;SDS011;4965;43.238;27.864;2022-09-16T02:13:07;10.55;;;4.10;;
9852;SDS011;4965;43.238;27.864;2022-09-16T02:15:39;9.60;;;4.50;;
9852;SDS011;4965;43.238;27.864;2022-09-16T02:18:11;6.75;;;3.83;;
9852;SDS011;4965;43.238;27.864;2022-09-16T02:20:41;12.23;;;4.97;;
9852;SDS011;4965;43.238;27.864;2022-09-16T02:23:13;8.43;;;4.38;;
9852;SDS011;4965;43.238;27.864;2022-09-16T02:25:44;8.45;;;4.53;;
9852;SDS011;4965;43.238;27.864;2022-09-16T02:28:15;13.48;;;5.22;;
9852;SDS011;4965;43.238;27.864;2022-09-16T02:30:46;9.48;;;5.70;;
9852;SDS011;4965;43.238;27.864;2022-09-16T02:33:17;10.05;;;7.50;;
9852;SDS011;4965;43.238;27.864;2022-09-16T02:35:47;12.57;;;7.18;;
9852;SDS011;4965;43.238;27.864;2022-09-16T02:38:19;11.85;;;5.70;;
9852;SDS011;4965;43.238;27.864;2022-09-16T02:40:50;18.52;;;5.10;;
9852;SDS011;4965;43.238;27.864;2022-09-16T02:43:21;14.32;;;5.15;;
9852;SDS011;4965;43.238;27.864;2022-09-16T02:45:50;11.63;;;5.57;;
9852;SDS011;4965;43.238;27.864;2022-09-16T02:48:28;9.40;;;5.95;;
9852;SDS011;4965;43.238;27.864;2022-09-16T02:51:03;10.88;;;5.30;;
9852;SDS011;4965;43.238;27.864;2022-09-16T02:53:42;14.50;;;5.28;;
9852;SDS011;4965;43.238;27.864;2022-09-16T02:56:13;11.00;;;5.43;;
9852;SDS011;4965;43.238;27.864;2022-09-16T02:58:47;13.93;;;5.45;;
9852;SDS011;4965;43.238;27.864;2022-09-16T03:01:14;11.40;;;5.10;;
9852;SDS011;4965;43.238;27.864;2022-09-16T03:03:43;7.60;;;5.03;;
9852;SDS011;4965;43.238;27.864;2022-09-16T03:06:15;9.95;;;5.22;;
9852;SDS011;4965;43.238;27.864;2022-09-16T03:08:44;18.20;;;5.32;;
9852;SDS011;4965;43.238;27.864;2022-09-16T03:11:19;15.27;;;5.45;;
9852;SDS011;4965;43.238;27.864;2022-09-16T03:13:59;8.15;;;5.15;;
9852;SDS011;4965;43.238;27.864;2022-09-16T03:16:40;11.63;;;4.60;;
9852;SDS011;4965;43.238;27.864;2022-09-16T03:19:18;14.00;;;5.63;;
9852;SDS011;4965;43.238;27.864;2022-09-16T03:21:53;12.57;;;4.75;;
9852;SDS011;4965;43.238;27.864;2022-09-16T03:25:06;10.80;;;5.53;;
9852;SDS011;4965;43.238;27.864;2022-09-16T03:27:30;9.02;;;5.38;;
9852;SDS011;4965;43.238;27.864;2022-09-16T03:30:03;11.75;;;5.55;;
9852;SDS011;4965;43.238;27.864;2022-09-16T03:32:35;10.75;;;5.15;;
9852;SDS011;4965;43.238;27.864;2022-09-16T03:35:07;15.68;;;5.55;;
9852;SDS011;4965;43.238;27.864;2022-09-16T03:37:42;19.38;;;5.68;;
9852;SDS011;4965;43.238;27.864;2022-09-16T03:40:12;19.15;;;7.90;;
9852;SDS011;4965;43.238;27.864;2022-09-16T03:42:41;9.75;;;6.07;;
9852;SDS011;4965;43.238;27.864;2022-09-16T03:45:09;14.35;;;6.18;;
9852;SDS011;4965;43.238;27.864;2022-09-16T03:47:40;18.58;;;6.07;;
9852;SDS011;4965;43.238;27.864;2022-09-16T03:50:08;15.35;;;5.72;;
9852;SDS011;4965;43.238;27.864;2022-09-16T03:52:35;14.05;;;5.75;;
9852;SDS011;4965;43.238;27.864;2022-09-16T03:55:03;20.73;;;6.70;;
9852;SDS011;4965;43.238;27.864;2022-09-16T03:57:31;7.28;;;5.47;;
9852;SDS011;4965;43.238;27.864;2022-09-16T03:59:58;15.98;;;6.65;;
9852;SDS011;4965;43.238;27.864;2022-09-16T04:02:25;13.00;;;6.32;;
9852;SDS011;4965;43.238;27.864;2022-09-16T04:04:52;19.42;;;6.88;;
9852;SDS011;4965;43.238;27.864;2022-09-16T04:07:20;15.45;;;6.65;;
9852;SDS011;4965;43.238;27.864;2022-09-16T04:09:47;12.60;;;7.45;;
9852;SDS011;4965;43.238;27.864;2022-09-16T04:12:14;16.58;;;6.95;;
9852;SDS011;4965;43.238;27.864;2022-09-16T04:14:41;21.48;;;6.70;;
9852;SDS011;4965;43.238;27.864;2022-09-16T04:17:08;11.55;;;6.05;;
9852;SDS011;4965;43.238;27.864;2022-09-16T04:19:35;12.32;;;7.03;;
9852;SDS011;4965;43.238;27.864;2022-09-16T04:22:01;16.38;;;6.38;;
9852;SDS011;4965;43.238;27.864;2022-09-16T04:24:30;13.75;;;6.10;;
9852;SDS011;4965;43.238;27.864;2022-09-16T04:26:57;13.07;;;6.15;;
9852;SDS011;4965;43.238;27.864;2022-09-16T04:29:24;14.55;;;6.45;;
9852;SDS011;4965;43.238;27.864;2022-09-16T04:31:52;12.32;;;6.53;;
9852;SDS011;4965;43.238;27.864;2022-09-16T04:34:18;13.63;;;6.03;;
9852;SDS011;4965;43.238;27.864;2022-09-16T04:36:45;16.00;;;6.22;;
9852;SDS011;4965;43.238;27.864;2022-09-16T04:39:12;10.70;;;5.53;;
9852;SDS011;4965;43.238;27.864;2022-09-16T04:41:41;16.15;;;6.07;;
9852;SDS011;4965;43.238;27.864;2022-09-16T04:44:08;11.50;;;5.47;;
9852;SDS011;4965;43.238;27.864;2022-09-16T04:46:36;13.48;;;6.20;;
9852;SDS011;4965;43.238;27.864;2022-09-16T04:49:02;15.63;;;5.82;;
9852;SDS011;4965;43.238;27.864;2022-09-16T04:51:29;19.25;;;6.78;;
9852;SDS011;4965;43.238;27.864;2022-09-16T04:53:57;11.77;;;6.25;;
9852;SDS011;4965;43.238;27.864;2022-09-16T04:56:26;27.20;;;6.22;;
9852;SDS011;4965;43.238;27.864;2022-09-16T04:58:57;15.77;;;6.13;;
9852;SDS011;4965;43.238;27.864;2022-09-16T05:01:26;14.48;;;5.88;;
9852;SDS011;4965;43.238;27.864;2022-09-16T05:03:56;15.02;;;5.65;;
9852;SDS011;4965;43.238;27.864;2022-09-16T05:06:26;17.48;;;5.45;;
9852;SDS011;4965;43.238;27.864;2022-09-16T05:08:54;14.93;;;5.78;;
9852;SDS011;4965;43.238;27.864;2022-09-16T05:11:23;14.70;;;6.28;;
9852;SDS011;4965;43.238;27.864;2022-09-16T05:13:51;13.07;;;5.60;;
9852;SDS011;4965;43.238;27.864;2022-09-16T05:16:21;17.77;;;5.90;;
9852;SDS011;4965;43.238;27.864;2022-09-16T05:18:50;19.67;;;5.85;;
9852;SDS011;4965;43.238;27.864;2022-09-16T05:21:19;9.88;;;5.95;;
9852;SDS011;4965;43.238;27.864;2022-09-16T05:23:48;20.63;;;8.60;;
9852;SDS011;4965;43.238;27.864;2022-09-16T05:26:16;16.73;;;7.95;;
9852;SDS011;4965;43.238;27.864;2022-09-16T05:28:44;16.88;;;7.40;;
9852;SDS011;4965;43.238;27.864;2022-09-16T05:31:12;13.40;;;6.88;;
9852;SDS011;4965;43.238;27.864;2022-09-16T05:33:42;12.70;;;5.50;;
9852;SDS011;4965;43.238;27.864;2022-09-16T05:36:11;22.00;;;6.22;;
9852;SDS011;4965;43.238;27.864;2022-09-16T05:38:39;17.00;;;5.90;;
9852;SDS011;4965;43.238;27.864;2022-09-16T05:41:07;13.88;;;5.45;;
9852;SDS011;4965;43.238;27.864;2022-09-16T05:43:34;16.63;;;5.53;;
9852;SDS011;4965;43.238;27.864;2022-09-16T05:46:02;20.50;;;5.35;;
9852;SDS011;4965;43.238;27.864;2022-09-16T05:48:29;21.90;;;5.68;;
9852;SDS011;4965;43.238;27.864;2022-09-16T05:50:58;19.15;;;4.43;;
9852;SDS011;4965;43.238;27.864;2022-09-16T05:53:28;16.00;;;5.35;;
9852;SDS011;4965;43.238;27.864;2022-09-16T05:55:56;15.85;;;4.57;;
9852;SDS011;4965;43.238;27.864;2022-09-16T05:58:24;13.50;;;4.68;;
9852;SDS011;4965;43.238;27.864;2022-09-16T06:00:56;23.77;;;5.45;;
9852;SDS011;4965;43.238;27.864;2022-09-16T06:03:24;17.15;;;5.13;;
9852;SDS011;4965;43.238;27.864;2022-09-16T06:05:57;20.17;;;5.07;;
9852;SDS011;4965;43.238;27.864;2022-09-16T06:08:27;19.65;;;5.55;;
9852;SDS011;4965;43.238;27.864;2022-09-16T06:10:54;18.05;;;4.75;;
9852;SDS011;4965;43.238;27.864;2022-09-16T06:13:21;12.45;;;4.68;;
9852;SDS011;4965;43.238;27.864;2022-09-16T06:15:48;18.30;;;4.68;;
9852;SDS011;4965;43.238;27.864;2022-09-16T06:18:18;22.30;;;4.82;;
9852;SDS011;4965;43.238;27.864;2022-09-16T06:20:45;18.90;;;4.72;;
9852;SDS011;4965;43.238;27.864;2022-09-16T06:23:13;16.85;;;3.90;;
9852;SDS011;4965;43.238;27.864;2022-09-16T06:25:41;15.25;;;3.90;;
9852;SDS011;4965;43.238;27.864;2022-09-16T06:28:09;17.35;;;3.75;;
9852;SDS011;4965;43.238;27.864;2022-09-16T06:30:36;20.23;;;4.18;;
9852;SDS011;4965;43.238;27.864;2022-09-16T06:33:03;15.18;;;3.80;;
9852;SDS011;4965;43.238;27.864;2022-09-16T06:35:32;44.33;;;4.43;;
9852;SDS011;4965;43.238;27.864;2022-09-16T06:38:00;16.73;;;4.32;;
9852;SDS011;4965;43.238;27.864;2022-09-16T06:40:29;20.20;;;3.90;;
9852;SDS011;4965;43.238;27.864;2022-09-16T06:42:56;14.63;;;3.70;;
9852;SDS011;4965;43.238;27.864;2022-09-16T06:45:23;19.88;;;4.03;;
9852;SDS011;4965;43.238;27.864;2022-09-16T06:47:50;20.10;;;4.65;;
9852;SDS011;4965;43.238;27.864;2022-09-16T06:50:17;18.08;;;3.78;;
9852;SDS011;4965;43.238;27.864;2022-09-16T06:52:44;17.98;;;3.63;;
9852;SDS011;4965;43.238;27.864;2022-09-16T06:55:15;22.23;;;4.13;;
9852;SDS011;4965;43.238;27.864;2022-09-16T06:57:44;25.35;;;4.40;;
9852;SDS011;4965;43.238;27.864;2022-09-16T07:00:11;21.70;;;3.95;;
9852;SDS011;4965;43.238;27.864;2022-09-16T07:02:39;18.77;;;4.68;;
9852;SDS011;4965;43.238;27.864;2022-09-16T07:05:06;16.70;;;3.83;;
9852;SDS011;4965;43.238;27.864;2022-09-16T07:07:33;18.95;;;4.00;;
9852;SDS011;4965;43.238;27.864;2022-09-16T07:10:00;24.02;;;4.22;;
9852;SDS011;4965;43.238;27.864;2022-09-16T07:12:27;13.60;;;4.18;;
9852;SDS011;4965;43.238;27.864;2022-09-16T07:14:56;15.23;;;3.67;;
9852;SDS011;4965;43.238;27.864;2022-09-16T07:17:22;22.33;;;3.85;;
9852;SDS011;4965;43.238;27.864;2022-09-16T07:19:51;14.80;;;4.20;;
9852;SDS011;4965;43.238;27.864;2022-09-16T07:22:18;14.57;;;3.83;;
9852;SDS011;4965;43.238;27.864;2022-09-16T07:24:45;18.13;;;4.50;;
9852;SDS011;4965;43.238;27.864;2022-09-16T07:27:12;21.67;;;4.88;;
9852;SDS011;4965;43.238;27.864;2022-09-16T07:29:39;27.13;;;4.60;;
9852;SDS011;4965;43.238;27.864;2022-09-16T07:32:08;33.25;;;4.68;;
9852;SDS011;4965;43.238;27.864;2022-09-16T07:34:34;18.20;;;4.00;;
9852;SDS011;4965;43.238;27.864;2022-09-16T07:37:01;20.25;;;3.83;;
9852;SDS011;4965;43.238;27.864;2022-09-16T07:39:28;23.90;;;4.32;;
9852;SDS011;4965;43.238;27.864;2022-09-16T07:41:55;21.48;;;4.72;;
9852;SDS011;4965;43.238;27.864;2022-09-16T07:44:22;23.48;;;3.78;;
9852;SDS011;4965;43.238;27.864;2022-09-16T07:46:51;32.40;;;4.80;;
9852;SDS011;4965;43.238;27.864;2022-09-16T07:49:19;32.92;;;5.20;;
9852;SDS011;4965;43.238;27.864;2022-09-16T07:51:46;32.50;;;5.03;;
9852;SDS011;4965;43.238;27.864;2022-09-16T07:54:14;23.55;;;3.90;;
9852;SDS011;4965;43.238;27.864;2022-09-16T07:56:43;30.40;;;4.53;;
9852;SDS011;4965;43.238;27.864;2022-09-16T07:59:12;23.08;;;3.63;;
9852;SDS011;4965;43.238;27.864;2022-09-16T08:01:39;28.88;;;4.75;;
9852;SDS011;4965;43.238;27.864;2022-09-16T08:04:06;27.70;;;3.83;;
9852;SDS011;4965;43.238;27.864;2022-09-16T08:06:36;24.90;;;4.38;;
9852;SDS011;4965;43.238;27.864;2022-09-16T08:09:04;22.90;;;4.00;;
9852;SDS011;4965;43.238;27.864;2022-09-16T08:11:31;22.67;;;4.28;;
9852;SDS011;4965;43.238;27.864;2022-09-16T08:13:58;40.42;;;4.63;;
9852;SDS011;4965;43.238;27.864;2022-09-16T08:16:26;20.52;;;3.83;;
9852;SDS011;4965;43.238;27.864;2022-09-16T08:18:55;30.27;;;3.90;;
9852;SDS011;4965;43.238;27.864;2022-09-16T08:21:27;25.83;;;3.78;;
9852;SDS011;4965;43.238;27.864;2022-09-16T08:23:55;22.48;;;3.63;;
9852;SDS011;4965;43.238;27.864;2022-09-16T08:26:23;18.20;;;4.25;;
9852;SDS011;4965;43.238;27.864;2022-09-16T08:28:51;17.17;;;3.25;;
9852;SDS011;4965;43.238;27.864;2022-09-16T08:31:18;23.10;;;4.45;;
9852;SDS011;4965;43.238;27.864;2022-09-16T08:33:46;35.80;;;4.78;;
9852;SDS011;4965;43.238;27.864;2022-09-16T08:36:15;25.33;;;4.10;;
9852;SDS011;4965;43.238;27.864;2022-09-16T08:38:44;19.73;;;3.88;;
9852;SDS011;4965;43.238;27.864;2022-09-16T08:41:19;24.55;;;3.70;;
9852;SDS011;4965;43.238;27.864;2022-09-16T08:43:53;30.95;;;4.45;;
9852;SDS011;4965;43.238;27.864;2022-09-16T08:46:30;19.70;;;3.70;;
9852;SDS011;4965;43.238;27.864;2022-09-16T08:49:05;17.70;;;4.15;;
9852;SDS011;4965;43.238;27.864;2022-09-16T08:51:42;24.73;;;3.95;;
9852;SDS011;4965;43.238;27.864;2022-09-16T08:54:10;39.78;;;4.65;;
9852;SDS011;4965;43.238;27.864;2022-09-16T08:56:51;40.08;;;4.20;;
9852;SDS011;4965;43.238;27.864;2022-09-16T08:59:20;32.45;;;5.50;;
9852;SDS011;4965;43.238;27.864;2022-09-16T09:01:53;17.02;;;4.65;;
9852;SDS011;4965;43.238;27.864;2022-09-16T09:04:28;33.05;;;4.85;;
9852;SDS011;4965;43.238;27.864;2022-09-16T09:07:00;14.63;;;3.35;;
9852;SDS011;4965;43.238;27.864;2022-09-16T09:09:40;17.90;;;3.92;;
9852;SDS011;4965;43.238;27.864;2022-09-16T09:12:19;25.40;;;3.85;;
9852;SDS011;4965;43.238;27.864;2022-09-16T09:14:59;32.67;;;4.32;;
9852;SDS011;4965;43.238;27.864;2022-09-16T09:17:40;26.38;;;3.65;;
9852;SDS011;4965;43.238;27.864;2022-09-16T09:20:20;31.15;;;3.88;;
9852;SDS011;4965;43.238;27.864;2022-09-16T09:22:59;31.52;;;3.67;;
9852;SDS011;4965;43.238;27.864;2022-09-16T09:25:39;17.17;;;3.40;;
9852;SDS011;4965;43.238;27.864;2022-09-16T09:28:20;22.02;;;4.00;;
9852;SDS011;4965;43.238;27.864;2022-09-16T09:31:01;11.27;;;3.75;;
9852;SDS011;4965;43.238;27.864;2022-09-16T09:33:37;22.40;;;3.63;;
9852;SDS011;4965;43.238;27.864;2022-09-16T09:36:16;34.08;;;3.75;;
9852;SDS011;4965;43.238;27.864;2022-09-16T09:38:55;19.90;;;3.78;;
9852;SDS011;4965;43.238;27.864;2022-09-16T09:41:35;16.67;;;3.75;;
9852;SDS011;4965;43.238;27.864;2022-09-16T09:44:12;36.33;;;4.40;;
9852;SDS011;4965;43.238;27.864;2022-09-16T09:46:53;22.00;;;3.67;;
9852;SDS011;4965;43.238;27.864;2022-09-16T09:49:25;22.67;;;3.95;;
9852;SDS011;4965;43.238;27.864;2022-09-16T09:52:00;17.75;;;3.50;;
9852;SDS011;4965;43.238;27.864;2022-09-16T09:54:33;16.02;;;3.63;;
9852;SDS011;4965;43.238;27.864;2022-09-16T09:57:02;15.90;;;3.88;;
9852;SDS011;4965;43.238;27.864;2022-09-16T09:59:35;24.30;;;4.00;;
9852;SDS011;4965;43.238;27.864;2022-09-16T10:02:11;20.77;;;4.25;;
9852;SDS011;4965;43.238;27.864;2022-09-16T10:04:41;18.33;;;3.60;;
9852;SDS011;4965;43.238;27.864;2022-09-16T10:07:08;18.75;;;3.63;;
9852;SDS011;4965;43.238;27.864;2022-09-16T10:09:43;23.20;;;3.58;;
9852;SDS011;4965;43.238;27.864;2022-09-16T10:12:24;14.73;;;3.85;;
9852;SDS011;4965;43.238;27.864;2022-09-16T10:14:53;41.05;;;4.72;;
9852;SDS011;4965;43.238;27.864;2022-09-16T10:17:20;18.67;;;3.05;;
9852;SDS011;4965;43.238;27.864;2022-09-16T10:19:51;20.40;;;3.85;;
9852;SDS011;4965;43.238;27.864;2022-09-16T10:22:22;24.83;;;3.65;;
9852;SDS011;4965;43.238;27.864;2022-09-16T10:24:52;18.45;;;3.60;;
9852;SDS011;4965;43.238;27.864;2022-09-16T10:27:21;21.90;;;3.63;;
9852;SDS011;4965;43.238;27.864;2022-09-16T10:32:44;18.08;;;4.05;;
9852;SDS011;4965;43.238;27.864;2022-09-16T10:35:16;15.45;;;3.70;;
9852;SDS011;4965;43.238;27.864;2022-09-16T10:37:48;15.50;;;3.25;;
9852;SDS011;4965;43.238;27.864;2022-09-16T10:40:18;19.40;;;4.07;;
9852;SDS011;4965;43.238;27.864;2022-09-16T10:42:48;13.82;;;3.28;;
9852;SDS011;4965;43.238;27.864;2022-09-16T10:45:21;19.42;;;3.70;;
9852;SDS011;4965;43.238;27.864;2022-09-16T10:47:51;23.67;;;3.63;;
9852;SDS011;4965;43.238;27.864;2022-09-16T10:50:21;14.07;;;3.47;;
9852;SDS011;4965;43.238;27.864;2022-09-16T10:52:48;20.65;;;3.33;;
9852;SDS011;4965;43.238;27.864;2022-09-16T10:55:25;12.13;;;3.25;;
9852;SDS011;4965;43.238;27.864;2022-09-16T10:58:04;21.58;;;3.08;;
9852;SDS011;4965;43.238;27.864;2022-09-16T11:00:35;13.48;;;3.50;;
9852;SDS011;4965;43.238;27.864;2022-09-16T11:03:40;19.30;;;3.45;;
9852;SDS011;4965;43.238;27.864;2022-09-16T11:06:28;25.38;;;3.47;;
9852;SDS011;4965;43.238;27.864;2022-09-16T11:09:06;15.63;;;3.65;;
9852;SDS011;4965;43.238;27.864;2022-09-16T11:11:50;17.33;;;2.88;;
9852;SDS011;4965;43.238;27.864;2022-09-16T11:14:30;15.57;;;3.28;;
9852;SDS011;4965;43.238;27.864;2022-09-16T11:17:11;12.13;;;3.10;;
9852;SDS011;4965;43.238;27.864;2022-09-16T11:19:57;20.38;;;3.42;;
9852;SDS011;4965;43.238;27.864;2022-09-16T11:22:37;18.75;;;3.70;;
9852;SDS011;4965;43.238;27.864;2022-09-16T11:28:09;17.23;;;2.92;;
9852;SDS011;4965;43.238;27.864;2022-09-16T11:30:50;16.33;;;3.17;;
9852;SDS011;4965;43.238;27.864;2022-09-16T11:33:25;20.17;;;3.58;;
9852;SDS011;4965;43.238;27.864;2022-09-16T11:38:53;16.38;;;3.15;;
9852;SDS011;4965;43.238;27.864;2022-09-16T11:41:30;16.05;;;3.47;;
9852;SDS011;4965;43.238;27.864;2022-09-16T11:44:07;18.73;;;3.45;;
9852;SDS011;4965;43.238;27.864;2022-09-16T11:46:51;25.67;;;3.30;;
9852;SDS011;4965;43.238;27.864;2022-09-16T11:49:37;25.00;;;3.30;;
9852;SDS011;4965;43.238;27.864;2022-09-16T11:52:16;24.02;;;4.15;;
9852;SDS011;4965;43.238;27.864;2022-09-16T11:54:59;18.58;;;3.95;;
9852;SDS011;4965;43.238;27.864;2022-09-16T11:57:41;26.00;;;4.78;;
9852;SDS011;4965;43.238;27.864;2022-09-16T12:00:14;14.00;;;3.92;;
9852;SDS011;4965;43.238;27.864;2022-09-16T12:02:45;22.88;;;4.07;;
9852;SDS011;4965;43.238;27.864;2022-09-16T12:05:24;16.08;;;3.55;;
9852;SDS011;4965;43.238;27.864;2022-09-16T12:07:56;20.60;;;5.03;;
9852;SDS011;4965;43.238;27.864;2022-09-16T12:10:31;25.30;;;4.63;;
9852;SDS011;4965;43.238;27.864;2022-09-16T12:13:03;24.27;;;5.07;;
9852;SDS011;4965;43.238;27.864;2022-09-16T12:15:34;15.68;;;3.70;;
9852;SDS011;4965;43.238;27.864;2022-09-16T12:18:07;22.00;;;4.18;;
9852;SDS011;4965;43.238;27.864;2022-09-16T12:20:39;15.75;;;3.80;;
9852;SDS011;4965;43.238;27.864;2022-09-16T12:23:11;20.02;;;4.15;;
9852;SDS011;4965;43.238;27.864;2022-09-16T12:25:43;20.67;;;3.88;;
9852;SDS011;4965;43.238;27.864;2022-09-16T12:28:15;18.67;;;3.75;;
9852;SDS011;4965;43.238;27.864;2022-09-16T12:30:52;13.73;;;3.47;;
9852;SDS011;4965;43.238;27.864;2022-09-16T12:33:33;7.80;;;2.95;;
9852;SDS011;4965;43.238;27.864;2022-09-16T12:36:08;17.27;;;3.30;;
9852;SDS011;4965;43.238;27.864;2022-09-16T12:38:38;18.27;;;3.88;;
9852;SDS011;4965;43.238;27.864;2022-09-16T12:41:09;22.45;;;3.20;;
9852;SDS011;4965;43.238;27.864;2022-09-16T12:43:53;16.60;;;3.67;;
9852;SDS011;4965;43.238;27.864;2022-09-16T12:46:48;19.70;;;3.25;;
9852;SDS011;4965;43.238;27.864;2022-09-16T12:52:38;19.83;;;3.00;;
9852;SDS011;4965;43.238;27.864;2022-09-16T12:55:29;14.85;;;3.33;;
9852;SDS011;4965;43.238;27.864;2022-09-16T13:00:52;14.30;;;2.90;;
9852;SDS011;4965;43.238;27.864;2022-09-16T13:03:25;14.30;;;2.65;;
9852;SDS011;4965;43.238;27.864;2022-09-16T13:05:55;8.85;;;2.90;;
9852;SDS011;4965;43.238;27.864;2022-09-16T13:08:32;14.40;;;3.13;;
9852;SDS011;4965;43.238;27.864;2022-09-16T13:11:00;11.25;;;2.85;;
9852;SDS011;4965;43.238;27.864;2022-09-16T13:13:31;7.38;;;2.53;;
9852;SDS011;4965;43.238;27.864;2022-09-16T13:16:05;11.50;;;2.47;;
9852;SDS011;4965;43.238;27.864;2022-09-16T13:18:39;17.25;;;3.10;;
9852;SDS011;4965;43.238;27.864;2022-09-16T13:21:21;13.98;;;2.83;;
9852;SDS011;4965;43.238;27.864;2022-09-16T13:23:56;16.10;;;2.92;;
9852;SDS011;4965;43.238;27.864;2022-09-16T13:26:39;14.15;;;2.40;;
9852;SDS011;4965;43.238;27.864;2022-09-16T13:29:23;13.50;;;3.00;;
9852;SDS011;4965;43.238;27.864;2022-09-16T13:35:00;13.50;;;3.08;;
9852;SDS011;4965;43.238;27.864;2022-09-16T13:37:28;16.58;;;2.90;;
9852;SDS011;4965;43.238;27.864;2022-09-16T13:39:56;11.77;;;2.90;;
9852;SDS011;4965;43.238;27.864;2022-09-16T13:42:34;10.60;;;3.13;;
9852;SDS011;4965;43.238;27.864;2022-09-16T13:45:01;12.38;;;2.67;;
9852;SDS011;4965;43.238;27.864;2022-09-16T13:47:29;16.38;;;3.22;;
9852;SDS011;4965;43.238;27.864;2022-09-16T13:50:05;17.08;;;3.33;;
9852;SDS011;4965;43.238;27.864;2022-09-16T13:52:39;22.05;;;4.15;;
9852;SDS011;4965;43.238;27.864;2022-09-16T13:55:16;13.88;;;2.80;;
9852;SDS011;4965;43.238;27.864;2022-09-16T13:57:57;15.27;;;3.25;;
9852;SDS011;4965;43.238;27.864;2022-09-16T14:00:28;11.52;;;2.78;;
9852;SDS011;4965;43.238;27.864;2022-09-16T14:03:21;13.07;;;2.70;;
9852;SDS011;4965;43.238;27.864;2022-09-16T14:09:02;16.63;;;2.83;;
9852;SDS011;4965;43.238;27.864;2022-09-16T14:11:42;11.82;;;3.10;;
9852;SDS011;4965;43.238;27.864;2022-09-16T14:14:15;17.13;;;3.70;;
9852;SDS011;4965;43.238;27.864;2022-09-16T14:16:44;14.95;;;3.22;;
9852;SDS011;4965;43.238;27.864;2022-09-16T14:19:15;8.25;;;2.60;;
9852;SDS011;4965;43.238;27.864;2022-09-16T14:21:58;12.90;;;3.38;;
9852;SDS011;4965;43.238;27.864;2022-09-16T14:24:32;14.30;;;3.25;;
9852;SDS011;4965;43.238;27.864;2022-09-16T14:27:02;10.07;;;2.78;;
9852;SDS011;4965;43.238;27.864;2022-09-16T14:29:30;9.98;;;3.17;;
9852;SDS011;4965;43.238;27.864;2022-09-16T14:31:58;20.92;;;2.67;;
9852;SDS011;4965;43.238;27.864;2022-09-16T14:34:26;14.48;;;2.78;;
9852;SDS011;4965;43.238;27.864;2022-09-16T14:36:58;11.50;;;3.08;;
9852;SDS011;4965;43.238;27.864;2022-09-16T14:39:26;12.35;;;3.75;;
9852;SDS011;4965;43.238;27.864;2022-09-16T14:41:56;11.63;;;2.88;;
9852;SDS011;4965;43.238;27.864;2022-09-16T14:44:29;10.82;;;2.50;;
9852;SDS011;4965;43.238;27.864;2022-09-16T14:47:01;9.65;;;3.00;;
9852;SDS011;4965;43.238;27.864;2022-09-16T14:49:33;11.88;;;2.95;;
9852;SDS011;4965;43.238;27.864;2022-09-16T14:52:01;11.80;;;2.88;;
9852;SDS011;4965;43.238;27.864;2022-09-16T14:54:29;13.23;;;3.13;;
9852;SDS011;4965;43.238;27.864;2022-09-16T14:56:58;11.10;;;4.03;;
9852;SDS011;4965;43.238;27.864;2022-09-16T14:59:29;16.88;;;3.75;;
9852;SDS011;4965;43.238;27.864;2022-09-16T15:02:00;14.77;;;4.45;;
9852;SDS011;4965;43.238;27.864;2022-09-16T15:04:32;7.20;;;2.60;;
9852;SDS011;4965;43.238;27.864;2022-09-16T15:07:14;12.43;;;3.75;;
9852;SDS011;4965;43.238;27.864;2022-09-16T15:09:44;7.70;;;4.18;;
9852;SDS011;4965;43.238;27.864;2022-09-16T15:12:16;21.15;;;4.95;;
9852;SDS011;4965;43.238;27.864;2022-09-16T15:14:48;11.10;;;3.55;;
9852;SDS011;4965;43.238;27.864;2022-09-16T15:17:16;42.42;;;4.22;;
9852;SDS011;4965;43.238;27.864;2022-09-16T15:19:47;20.67;;;4.30;;
9852;SDS011;4965;43.238;27.864;2022-09-16T15:22:17;21.10;;;3.72;;
9852;SDS011;4965;43.238;27.864;2022-09-16T15:24:45;23.63;;;4.00;;
9852;SDS011;4965;43.238;27.864;2022-09-16T15:27:19;9.45;;;2.92;;
9852;SDS011;4965;43.238;27.864;2022-09-16T15:29:53;13.02;;;3.55;;
9852;SDS011;4965;43.238;27.864;2022-09-16T15:32:23;13.43;;;3.20;;
9852;SDS011;4965;43.238;27.864;2022-09-16T15:35:01;9.35;;;3.00;;
9852;SDS011;4965;43.238;27.864;2022-09-16T15:37:35;15.90;;;3.70;;
9852;SDS011;4965;43.238;27.864;2022-09-16T15:40:09;13.88;;;4.05;;
9852;SDS011;4965;43.238;27.864;2022-09-16T15:42:44;12.82;;;3.65;;
9852;SDS011;4965;43.238;27.864;2022-09-16T15:45:14;10.77;;;3.38;;
9852;SDS011;4965;43.238;27.864;2022-09-16T15:47:51;12.75;;;3.70;;
9852;SDS011;4965;43.238;27.864;2022-09-16T15:50:25;8.25;;;3.60;;
9852;SDS011;4965;43.238;27.864;2022-09-16T15:52:55;12.20;;;3.72;;